sensor_id;sensor_type;location;lat;lon;timestamp;temperature;humidity
4245;DHT22;2136;48.502;9.194;2023-01-16T00:01:15;5.70;57.70
4245;DHT22;2136;48.502;9.194;2023-01-16T00:03:44;5.70;57.70
4245;DHT22;2136;48.502;9.194;2023-01-16T00:06:10;5.70;57.70
4245;DHT22;2136;48.502;9.194;2023-01-16T00:08:37;5.80;57.80
4245;DHT22;2136;48.502;9.194;2023-01-16T00:11:04;5.70;57.90
4245;DHT22;2136;48.502;9.194;2023-01-16T00:13:31;5.80;58.00
4245;DHT22;2136;48.502;9.194;2023-01-16T00:15:58;5.80;58.00
4245;DHT22;2136;48.502;9.194;2023-01-16T00:18:25;5.80;58.20
4245;DHT22;2136;48.502;9.194;2023-01-16T00:20:53;6.00;58.60
4245;DHT22;2136;48.502;9.194;2023-01-16T00:23:20;5.80;58.60
4245;DHT22;2136;48.502;9.194;2023-01-16T00:25:47;5.80;58.70
4245;DHT22;2136;48.502;9.194;2023-01-16T00:28:14;5.80;58.90
4245;DHT22;2136;48.502;9.194;2023-01-16T00:30:41;5.80;58.90
4245;DHT22;2136;48.502;9.194;2023-01-16T00:33:09;5.70;59.10
4245;DHT22;2136;48.502;9.194;2023-01-16T00:35:36;5.90;59.20
4245;DHT22;2136;48.502;9.194;2023-01-16T00:38:04;5.90;59.20
4245;DHT22;2136;48.502;9.194;2023-01-16T00:40:31;5.70;59.00
4245;DHT22;2136;48.502;9.194;2023-01-16T00:42:58;5.90;59.10
4245;DHT22;2136;48.502;9.194;2023-01-16T00:45:25;5.60;59.20
4245;DHT22;2136;48.502;9.194;2023-01-16T00:47:51;5.60;59.40
4245;DHT22;2136;48.502;9.194;2023-01-16T00:50:18;5.70;59.50
4245;DHT22;2136;48.502;9.194;2023-01-16T00:52:45;5.60;59.30
4245;DHT22;2136;48.502;9.194;2023-01-16T00:55:13;5.60;59.20
4245;DHT22;2136;48.502;9.194;2023-01-16T00:57:40;5.60;59.10
4245;DHT22;2136;48.502;9.194;2023-01-16T01:00:08;5.60;58.80
4245;DHT22;2136;48.502;9.194;2023-01-16T01:02:35;5.60;58.70
4245;DHT22;2136;48.502;9.194;2023-01-16T01:05:02;5.70;58.60
4245;DHT22;2136;48.502;9.194;2023-01-16T01:07:29;5.60;58.40
4245;DHT22;2136;48.502;9.194;2023-01-16T01:09:55;5.60;58.60
4245;DHT22;2136;48.502;9.194;2023-01-16T01:12:24;5.60;58.60
4245;DHT22;2136;48.502;9.194;2023-01-16T01:14:50;5.70;58.80
4245;DHT22;2136;48.502;9.194;2023-01-16T01:17:17;5.70;58.80
4245;DHT22;2136;48.502;9.194;2023-01-16T01:19:44;5.70;58.70
4245;DHT22;2136;48.502;9.194;2023-01-16T01:22:11;5.60;58.60
4245;DHT22;2136;48.502;9.194;2023-01-16T01:24:37;5.60;58.70
4245;DHT22;2136;48.502;9.194;2023-01-16T01:27:04;5.60;58.70
4245;DHT22;2136;48.502;9.194;2023-01-16T01:29:32;5.60;59.20
4245;DHT22;2136;48.502;9.194;2023-01-16T01:31:59;5.60;59.70
4245;DHT22;2136;48.502;9.194;2023-01-16T01:34:27;5.50;59.50
4245;DHT22;2136;48.502;9.194;2023-01-16T01:36:56;5.60;59.60
4245;DHT22;2136;48.502;9.194;2023-01-16T01:39:23;5.50;59.70
4245;DHT22;2136;48.502;9.194;2023-01-16T01:41:50;5.40;59.70
4245;DHT22;2136;48.502;9.194;2023-01-16T01:44:51;5.60;59.80
4245;DHT22;2136;48.502;9.194;2023-01-16T01:47:20;5.30;59.70
4245;DHT22;2136;48.502;9.194;2023-01-16T01:49:48;5.30;59.80
4245;DHT22;2136;48.502;9.194;2023-01-16T01:52:17;5.40;59.90
4245;DHT22;2136;48.502;9.194;2023-01-16T01:54:50;5.40;60.00
4245;DHT22;2136;48.502;9.194;2023-01-16T01:57:21;5.20;60.10
4245;DHT22;2136;48.502;9.194;2023-01-16T01:59:54;5.30;60.20
4245;DHT22;2136;48.502;9.194;2023-01-16T02:02:24;5.30;60.20
4245;DHT22;2136;48.502;9.194;2023-01-16T02:04:54;5.20;60.10
4245;DHT22;2136;48.502;9.194;2023-01-16T02:07:24;5.40;60.30
4245;DHT22;2136;48.502;9.194;2023-01-16T02:10:00;5.30;60.50
4245;DHT22;2136;48.502;9.194;2023-01-16T02:12:28;5.20;61.40
4245;DHT22;2136;48.502;9.194;2023-01-16T02:14:57;5.30;60.60
4245;DHT22;2136;48.502;9.194;2023-01-16T02:17:25;5.10;60.40
4245;DHT22;2136;48.502;9.194;2023-01-16T02:20:19;5.10;60.40
4245;DHT22;2136;48.502;9.194;2023-01-16T02:23:14;5.10;60.50
4245;DHT22;2136;48.502;9.194;2023-01-16T02:29:28;5.10;61.30
4245;DHT22;2136;48.502;9.194;2023-01-16T02:32:06;4.90;62.00
4245;DHT22;2136;48.502;9.194;2023-01-16T02:34:51;4.70;62.50
4245;DHT22;2136;48.502;9.194;2023-01-16T02:37:32;4.70;62.90
4245;DHT22;2136;48.502;9.194;2023-01-16T02:40:09;4.70;63.00
4245;DHT22;2136;48.502;9.194;2023-01-16T02:42:43;4.70;63.00
4245;DHT22;2136;48.502;9.194;2023-01-16T02:45:16;4.70;63.30
4245;DHT22;2136;48.502;9.194;2023-01-16T02:47:50;4.60;63.50
4245;DHT22;2136;48.502;9.194;2023-01-16T02:50:27;4.60;63.50
4245;DHT22;2136;48.502;9.194;2023-01-16T02:53:00;4.50;63.70
4245;DHT22;2136;48.502;9.194;2023-01-16T02:55:32;4.50;63.70
4245;DHT22;2136;48.502;9.194;2023-01-16T02:58:02;4.50;63.90
4245;DHT22;2136;48.502;9.194;2023-01-16T03:00:30;4.50;63.90
4245;DHT22;2136;48.502;9.194;2023-01-16T03:02:59;4.50;64.00
4245;DHT22;2136;48.502;9.194;2023-01-16T03:05:31;4.50;63.90
4245;DHT22;2136;48.502;9.194;2023-01-16T03:08:27;4.50;63.80
4245;DHT22;2136;48.502;9.194;2023-01-16T03:11:14;4.40;64.10
4245;DHT22;2136;48.502;9.194;2023-01-16T03:14:16;4.30;64.30
4245;DHT22;2136;48.502;9.194;2023-01-16T03:16:55;4.30;64.50
4245;DHT22;2136;48.502;9.194;2023-01-16T03:19:36;4.30;64.50
4245;DHT22;2136;48.502;9.194;2023-01-16T03:22:11;4.40;64.60
4245;DHT22;2136;48.502;9.194;2023-01-16T03:24:52;4.40;64.20
4245;DHT22;2136;48.502;9.194;2023-01-16T03:27:30;4.40;64.00
4245;DHT22;2136;48.502;9.194;2023-01-16T03:30:08;4.40;63.80
4245;DHT22;2136;48.502;9.194;2023-01-16T03:32:39;4.50;63.70
4245;DHT22;2136;48.502;9.194;2023-01-16T03:35:13;4.60;63.70
4245;DHT22;2136;48.502;9.194;2023-01-16T03:37:45;4.80;63.60
4245;DHT22;2136;48.502;9.194;2023-01-16T03:40:17;4.80;63.30
4245;DHT22;2136;48.502;9.194;2023-01-16T03:42:51;4.70;62.80
4245;DHT22;2136;48.502;9.194;2023-01-16T03:45:22;4.70;62.70
4245;DHT22;2136;48.502;9.194;2023-01-16T03:47:51;4.80;62.60
4245;DHT22;2136;48.502;9.194;2023-01-16T03:50:23;4.80;62.30
4245;DHT22;2136;48.502;9.194;2023-01-16T03:52:54;4.70;62.10
4245;DHT22;2136;48.502;9.194;2023-01-16T03:55:30;4.80;62.20
4245;DHT22;2136;48.502;9.194;2023-01-16T03:58:01;4.70;62.10
4245;DHT22;2136;48.502;9.194;2023-01-16T04:00:35;4.70;62.10
4245;DHT22;2136;48.502;9.194;2023-01-16T04:03:05;4.70;62.00
4245;DHT22;2136;48.502;9.194;2023-01-16T04:05:42;4.70;62.00
4245;DHT22;2136;48.502;9.194;2023-01-16T04:08:15;4.70;62.20
4245;DHT22;2136;48.502;9.194;2023-01-16T04:10:45;4.70;62.20
4245;DHT22;2136;48.502;9.194;2023-01-16T04:13:15;4.70;62.10
4245;DHT22;2136;48.502;9.194;2023-01-16T04:15:46;4.70;62.20
4245;DHT22;2136;48.502;9.194;2023-01-16T04:18:13;4.70;62.30
4245;DHT22;2136;48.502;9.194;2023-01-16T04:20:44;4.70;62.00
4245;DHT22;2136;48.502;9.194;2023-01-16T04:23:12;4.70;62.10
4245;DHT22;2136;48.502;9.194;2023-01-16T04:25:41;4.80;61.90
4245;DHT22;2136;48.502;9.194;2023-01-16T04:28:08;5.00;62.20
4245;DHT22;2136;48.502;9.194;2023-01-16T04:30:34;4.80;62.00
4245;DHT22;2136;48.502;9.194;2023-01-16T04:33:01;4.80;61.80
4245;DHT22;2136;48.502;9.194;2023-01-16T04:35:29;4.90;61.80
4245;DHT22;2136;48.502;9.194;2023-01-16T04:37:57;5.00;61.80
4245;DHT22;2136;48.502;9.194;2023-01-16T04:40:24;4.90;61.50
4245;DHT22;2136;48.502;9.194;2023-01-16T04:42:51;4.90;61.20
4245;DHT22;2136;48.502;9.194;2023-01-16T04:45:20;4.90;61.10
4245;DHT22;2136;48.502;9.194;2023-01-16T04:47:47;4.90;60.90
4245;DHT22;2136;48.502;9.194;2023-01-16T04:50:15;4.90;60.90
4245;DHT22;2136;48.502;9.194;2023-01-16T04:52:42;4.80;60.70
4245;DHT22;2136;48.502;9.194;2023-01-16T04:55:11;4.80;60.80
4245;DHT22;2136;48.502;9.194;2023-01-16T04:57:37;4.90;61.60
4245;DHT22;2136;48.502;9.194;2023-01-16T05:00:06;5.00;60.90
4245;DHT22;2136;48.502;9.194;2023-01-16T05:02:34;4.90;60.60
4245;DHT22;2136;48.502;9.194;2023-01-16T05:05:00;4.80;60.60
4245;DHT22;2136;48.502;9.194;2023-01-16T05:07:27;4.80;60.80
4245;DHT22;2136;48.502;9.194;2023-01-16T05:09:54;4.80;60.70
4245;DHT22;2136;48.502;9.194;2023-01-16T05:12:22;4.80;60.80
4245;DHT22;2136;48.502;9.194;2023-01-16T05:14:49;4.80;60.70
4245;DHT22;2136;48.502;9.194;2023-01-16T05:17:16;4.80;60.80
4245;DHT22;2136;48.502;9.194;2023-01-16T05:19:42;4.70;60.80
4245;DHT22;2136;48.502;9.194;2023-01-16T05:22:09;4.70;60.80
4245;DHT22;2136;48.502;9.194;2023-01-16T05:24:36;4.80;60.90
4245;DHT22;2136;48.502;9.194;2023-01-16T05:27:03;4.60;61.10
4245;DHT22;2136;48.502;9.194;2023-01-16T05:29:32;4.60;61.20
4245;DHT22;2136;48.502;9.194;2023-01-16T05:31:58;4.80;61.50
4245;DHT22;2136;48.502;9.194;2023-01-16T05:34:25;4.60;61.60
4245;DHT22;2136;48.502;9.194;2023-01-16T05:36:52;4.70;61.70
4245;DHT22;2136;48.502;9.194;2023-01-16T05:39:19;4.70;62.00
4245;DHT22;2136;48.502;9.194;2023-01-16T05:41:45;4.70;61.70
4245;DHT22;2136;48.502;9.194;2023-01-16T05:44:12;4.60;61.90
4245;DHT22;2136;48.502;9.194;2023-01-16T05:46:40;4.60;61.80
4245;DHT22;2136;48.502;9.194;2023-01-16T05:49:07;4.50;61.90
4245;DHT22;2136;48.502;9.194;2023-01-16T05:51:34;4.40;62.30
4245;DHT22;2136;48.502;9.194;2023-01-16T05:54:01;4.40;62.50
4245;DHT22;2136;48.502;9.194;2023-01-16T05:56:27;4.40;62.50
4245;DHT22;2136;48.502;9.194;2023-01-16T05:58:54;4.30;62.60
4245;DHT22;2136;48.502;9.194;2023-01-16T06:01:22;4.30;62.80
4245;DHT22;2136;48.502;9.194;2023-01-16T06:03:50;4.30;62.60
4245;DHT22;2136;48.502;9.194;2023-01-16T06:06:17;4.30;62.70
4245;DHT22;2136;48.502;9.194;2023-01-16T06:08:46;4.30;62.60
4245;DHT22;2136;48.502;9.194;2023-01-16T06:11:13;4.30;62.70
4245;DHT22;2136;48.502;9.194;2023-01-16T06:13:40;4.30;62.70
4245;DHT22;2136;48.502;9.194;2023-01-16T06:16:07;4.20;62.60
4245;DHT22;2136;48.502;9.194;2023-01-16T06:18:35;4.20;62.80
4245;DHT22;2136;48.502;9.194;2023-01-16T06:21:03;4.20;62.50
4245;DHT22;2136;48.502;9.194;2023-01-16T06:23:30;4.20;62.50
4245;DHT22;2136;48.502;9.194;2023-01-16T06:25:57;4.20;62.50
4245;DHT22;2136;48.502;9.194;2023-01-16T06:28:23;4.20;62.60
4245;DHT22;2136;48.502;9.194;2023-01-16T06:30:51;4.20;62.60
4245;DHT22;2136;48.502;9.194;2023-01-16T06:33:18;4.20;62.80
4245;DHT22;2136;48.502;9.194;2023-01-16T06:35:45;4.20;62.50
4245;DHT22;2136;48.502;9.194;2023-01-16T06:38:13;4.20;62.30
4245;DHT22;2136;48.502;9.194;2023-01-16T06:40:40;4.30;62.40
4245;DHT22;2136;48.502;9.194;2023-01-16T06:43:09;4.30;61.70
4245;DHT22;2136;48.502;9.194;2023-01-16T06:45:36;4.30;61.90
4245;DHT22;2136;48.502;9.194;2023-01-16T06:48:03;4.40;61.70
4245;DHT22;2136;48.502;9.194;2023-01-16T06:50:30;4.40;61.80
4245;DHT22;2136;48.502;9.194;2023-01-16T06:52:57;4.40;61.70
4245;DHT22;2136;48.502;9.194;2023-01-16T06:55:26;4.40;61.80
4245;DHT22;2136;48.502;9.194;2023-01-16T06:57:52;4.40;62.00
4245;DHT22;2136;48.502;9.194;2023-01-16T07:00:20;4.50;61.90
4245;DHT22;2136;48.502;9.194;2023-01-16T07:02:51;4.40;61.90
4245;DHT22;2136;48.502;9.194;2023-01-16T07:05:20;4.50;61.90
4245;DHT22;2136;48.502;9.194;2023-01-16T07:07:47;4.50;61.80
4245;DHT22;2136;48.502;9.194;2023-01-16T07:10:14;4.60;61.60
4245;DHT22;2136;48.502;9.194;2023-01-16T07:12:43;4.50;61.70
4245;DHT22;2136;48.502;9.194;2023-01-16T07:15:10;4.50;61.40
4245;DHT22;2136;48.502;9.194;2023-01-16T07:17:54;4.50;61.50
4245;DHT22;2136;48.502;9.194;2023-01-16T07:20:52;4.60;61.10
4245;DHT22;2136;48.502;9.194;2023-01-16T07:23:39;4.50;61.20
4245;DHT22;2136;48.502;9.194;2023-01-16T07:26:09;4.50;61.20
4245;DHT22;2136;48.502;9.194;2023-01-16T07:28:39;4.50;60.80
4245;DHT22;2136;48.502;9.194;2023-01-16T07:31:06;4.50;60.50
4245;DHT22;2136;48.502;9.194;2023-01-16T07:33:34;4.50;60.60
4245;DHT22;2136;48.502;9.194;2023-01-16T07:36:00;4.50;60.30
4245;DHT22;2136;48.502;9.194;2023-01-16T07:38:27;4.50;60.90
4245;DHT22;2136;48.502;9.194;2023-01-16T07:40:54;4.60;60.90
4245;DHT22;2136;48.502;9.194;2023-01-16T07:43:21;4.80;60.70
4245;DHT22;2136;48.502;9.194;2023-01-16T07:45:49;4.70;60.00
4245;DHT22;2136;48.502;9.194;2023-01-16T07:48:18;4.70;59.70
4245;DHT22;2136;48.502;9.194;2023-01-16T07:50:49;4.80;59.20
4245;DHT22;2136;48.502;9.194;2023-01-16T07:53:17;4.80;59.20
4245;DHT22;2136;48.502;9.194;2023-01-16T07:55:47;4.80;58.80
4245;DHT22;2136;48.502;9.194;2023-01-16T07:58:14;4.90;58.60
4245;DHT22;2136;48.502;9.194;2023-01-16T08:00:41;5.00;58.10
4245;DHT22;2136;48.502;9.194;2023-01-16T08:03:09;5.00;57.70
4245;DHT22;2136;48.502;9.194;2023-01-16T08:05:36;5.00;57.50
4245;DHT22;2136;48.502;9.194;2023-01-16T08:08:03;5.10;56.90
4245;DHT22;2136;48.502;9.194;2023-01-16T08:10:30;5.20;56.50
4245;DHT22;2136;48.502;9.194;2023-01-16T08:12:57;5.20;56.40
4245;DHT22;2136;48.502;9.194;2023-01-16T08:15:23;5.30;56.40
4245;DHT22;2136;48.502;9.194;2023-01-16T08:17:50;5.20;56.40
4245;DHT22;2136;48.502;9.194;2023-01-16T08:20:19;5.30;56.60
4245;DHT22;2136;48.502;9.194;2023-01-16T08:22:47;5.40;56.50
4245;DHT22;2136;48.502;9.194;2023-01-16T08:25:17;5.50;56.10
4245;DHT22;2136;48.502;9.194;2023-01-16T08:27:44;5.50;55.80
4245;DHT22;2136;48.502;9.194;2023-01-16T08:30:12;5.40;55.80
4245;DHT22;2136;48.502;9.194;2023-01-16T08:32:40;5.40;55.40
4245;DHT22;2136;48.502;9.194;2023-01-16T08:35:08;5.40;55.40
4245;DHT22;2136;48.502;9.194;2023-01-16T08:37:37;5.40;55.70
4245;DHT22;2136;48.502;9.194;2023-01-16T08:40:04;5.40;55.40
4245;DHT22;2136;48.502;9.194;2023-01-16T08:42:31;5.50;55.50
4245;DHT22;2136;48.502;9.194;2023-01-16T08:45:16;5.50;54.80
4245;DHT22;2136;48.502;9.194;2023-01-16T08:48:01;5.60;55.10
4245;DHT22;2136;48.502;9.194;2023-01-16T08:50:46;5.50;55.10
4245;DHT22;2136;48.502;9.194;2023-01-16T08:53:32;5.50;55.30
4245;DHT22;2136;48.502;9.194;2023-01-16T08:55:59;5.60;54.80
4245;DHT22;2136;48.502;9.194;2023-01-16T08:58:26;5.60;54.30
4245;DHT22;2136;48.502;9.194;2023-01-16T09:00:53;5.60;54.10
4245;DHT22;2136;48.502;9.194;2023-01-16T09:03:20;5.60;53.70
4245;DHT22;2136;48.502;9.194;2023-01-16T09:05:47;5.50;53.90
4245;DHT22;2136;48.502;9.194;2023-01-16T09:08:13;5.60;54.10
4245;DHT22;2136;48.502;9.194;2023-01-16T09:10:41;5.60;54.10
4245;DHT22;2136;48.502;9.194;2023-01-16T09:13:28;5.60;54.60
4245;DHT22;2136;48.502;9.194;2023-01-16T09:16:12;5.50;54.20
4245;DHT22;2136;48.502;9.194;2023-01-16T09:18:38;5.60;54.40
4245;DHT22;2136;48.502;9.194;2023-01-16T09:21:05;5.60;54.40
4245;DHT22;2136;48.502;9.194;2023-01-16T09:23:32;5.60;54.40
4245;DHT22;2136;48.502;9.194;2023-01-16T09:26:00;5.60;54.30
4245;DHT22;2136;48.502;9.194;2023-01-16T09:28:27;5.60;54.40
4245;DHT22;2136;48.502;9.194;2023-01-16T09:30:54;5.70;54.60
4245;DHT22;2136;48.502;9.194;2023-01-16T09:33:21;5.60;54.40
4245;DHT22;2136;48.502;9.194;2023-01-16T09:35:47;5.60;54.30
4245;DHT22;2136;48.502;9.194;2023-01-16T09:38:14;5.70;54.30
4245;DHT22;2136;48.502;9.194;2023-01-16T09:40:43;5.80;53.60
4245;DHT22;2136;48.502;9.194;2023-01-16T09:43:33;5.90;53.60
4245;DHT22;2136;48.502;9.194;2023-01-16T09:46:08;6.10;53.00
4245;DHT22;2136;48.502;9.194;2023-01-16T09:48:41;6.30;53.00
4245;DHT22;2136;48.502;9.194;2023-01-16T09:51:13;6.40;52.70
4245;DHT22;2136;48.502;9.194;2023-01-16T09:53:44;6.50;52.10
4245;DHT22;2136;48.502;9.194;2023-01-16T09:56:33;6.70;51.60
4245;DHT22;2136;48.502;9.194;2023-01-16T09:59:24;6.80;51.40
4245;DHT22;2136;48.502;9.194;2023-01-16T10:01:56;6.90;51.60
4245;DHT22;2136;48.502;9.194;2023-01-16T10:04:28;7.00;51.60
4245;DHT22;2136;48.502;9.194;2023-01-16T10:09:53;7.00;50.30
4245;DHT22;2136;48.502;9.194;2023-01-16T10:12:27;7.00;50.30
4245;DHT22;2136;48.502;9.194;2023-01-16T10:15:17;7.00;50.30
4245;DHT22;2136;48.502;9.194;2023-01-16T10:17:55;7.10;50.20
4245;DHT22;2136;48.502;9.194;2023-01-16T10:20:54;7.10;49.20
4245;DHT22;2136;48.502;9.194;2023-01-16T10:23:41;7.10;48.60
4245;DHT22;2136;48.502;9.194;2023-01-16T10:26:15;7.10;48.10
4245;DHT22;2136;48.502;9.194;2023-01-16T10:28:54;7.20;48.30
4245;DHT22;2136;48.502;9.194;2023-01-16T10:31:27;7.20;48.30
4245;DHT22;2136;48.502;9.194;2023-01-16T10:33:58;7.30;48.10
4245;DHT22;2136;48.502;9.194;2023-01-16T10:36:30;7.30;47.80
4245;DHT22;2136;48.502;9.194;2023-01-16T10:38:59;7.40;48.10
4245;DHT22;2136;48.502;9.194;2023-01-16T10:41:28;7.40;47.90
4245;DHT22;2136;48.502;9.194;2023-01-16T10:44:29;7.50;48.00
4245;DHT22;2136;48.502;9.194;2023-01-16T10:47:16;7.50;47.40
4245;DHT22;2136;48.502;9.194;2023-01-16T10:50:01;7.50;47.40
4245;DHT22;2136;48.502;9.194;2023-01-16T10:52:29;7.50;47.00
4245;DHT22;2136;48.502;9.194;2023-01-16T10:54:57;7.50;47.30
4245;DHT22;2136;48.502;9.194;2023-01-16T10:57:25;7.50;47.60
4245;DHT22;2136;48.502;9.194;2023-01-16T10:59:55;7.50;47.40
4245;DHT22;2136;48.502;9.194;2023-01-16T11:02:29;7.50;47.60
4245;DHT22;2136;48.502;9.194;2023-01-16T11:04:57;7.60;48.30
4245;DHT22;2136;48.502;9.194;2023-01-16T11:07:28;7.60;48.40
4245;DHT22;2136;48.502;9.194;2023-01-16T11:09:56;7.60;48.80
4245;DHT22;2136;48.502;9.194;2023-01-16T11:12:25;7.60;48.90
4245;DHT22;2136;48.502;9.194;2023-01-16T11:15:17;7.60;49.40
4245;DHT22;2136;48.502;9.194;2023-01-16T11:18:08;7.60;50.30
4245;DHT22;2136;48.502;9.194;2023-01-16T11:20:58;7.50;51.60
4245;DHT22;2136;48.502;9.194;2023-01-16T11:23:27;7.50;52.50
4245;DHT22;2136;48.502;9.194;2023-01-16T11:26:00;7.50;52.90
4245;DHT22;2136;48.502;9.194;2023-01-16T11:28:28;7.50;53.40
4245;DHT22;2136;48.502;9.194;2023-01-16T11:30:57;7.50;53.90
4245;DHT22;2136;48.502;9.194;2023-01-16T11:33:27;7.50;54.50
4245;DHT22;2136;48.502;9.194;2023-01-16T11:35:57;7.40;54.90
4245;DHT22;2136;48.502;9.194;2023-01-16T11:38:27;7.40;55.30
4245;DHT22;2136;48.502;9.194;2023-01-16T11:40:56;7.40;55.80
4245;DHT22;2136;48.502;9.194;2023-01-16T11:43:26;7.40;56.00
4245;DHT22;2136;48.502;9.194;2023-01-16T11:46:32;7.50;56.20
4245;DHT22;2136;48.502;9.194;2023-01-16T11:49:03;7.50;56.50
4245;DHT22;2136;48.502;9.194;2023-01-16T11:51:32;7.60;56.70
4245;DHT22;2136;48.502;9.194;2023-01-16T11:54:00;7.60;56.70
4245;DHT22;2136;48.502;9.194;2023-01-16T11:56:50;7.70;56.80
4245;DHT22;2136;48.502;9.194;2023-01-16T12:05:43;7.70;56.50
4245;DHT22;2136;48.502;9.194;2023-01-16T12:08:36;7.70;56.60
4245;DHT22;2136;48.502;9.194;2023-01-16T12:11:07;7.80;56.60
4245;DHT22;2136;48.502;9.194;2023-01-16T12:13:39;7.90;56.60
4245;DHT22;2136;48.502;9.194;2023-01-16T12:16:35;8.00;56.70
4245;DHT22;2136;48.502;9.194;2023-01-16T12:19:35;8.00;56.80
4245;DHT22;2136;48.502;9.194;2023-01-16T12:22:16;8.10;56.80
4245;DHT22;2136;48.502;9.194;2023-01-16T12:24:50;8.10;56.50
4245;DHT22;2136;48.502;9.194;2023-01-16T12:27:34;8.00;56.20
4245;DHT22;2136;48.502;9.194;2023-01-16T12:30:15;8.10;56.30
4245;DHT22;2136;48.502;9.194;2023-01-16T12:32:51;8.20;56.40
4245;DHT22;2136;48.502;9.194;2023-01-16T12:35:41;8.20;56.40
4245;DHT22;2136;48.502;9.194;2023-01-16T12:38:15;8.20;56.40
4245;DHT22;2136;48.502;9.194;2023-01-16T12:41:09;8.20;56.20
4245;DHT22;2136;48.502;9.194;2023-01-16T12:44:05;8.30;56.10
4245;DHT22;2136;48.502;9.194;2023-01-16T12:46:44;8.30;56.10
4245;DHT22;2136;48.502;9.194;2023-01-16T12:49:25;8.30;56.00
4245;DHT22;2136;48.502;9.194;2023-01-16T12:52:12;8.30;55.80
4245;DHT22;2136;48.502;9.194;2023-01-16T12:54:57;8.40;56.10
4245;DHT22;2136;48.502;9.194;2023-01-16T12:57:46;8.40;56.20
4245;DHT22;2136;48.502;9.194;2023-01-16T13:00:18;8.50;56.10
4245;DHT22;2136;48.502;9.194;2023-01-16T13:02:48;8.50;55.60
4245;DHT22;2136;48.502;9.194;2023-01-16T13:05:20;8.60;55.60
4245;DHT22;2136;48.502;9.194;2023-01-16T13:07:51;8.70;55.30
4245;DHT22;2136;48.502;9.194;2023-01-16T13:10:23;8.70;55.40
4245;DHT22;2136;48.502;9.194;2023-01-16T13:13:26;8.70;55.30
4245;DHT22;2136;48.502;9.194;2023-01-16T13:16:01;8.70;55.40
4245;DHT22;2136;48.502;9.194;2023-01-16T13:18:33;8.70;55.30
4245;DHT22;2136;48.502;9.194;2023-01-16T13:21:06;8.60;54.90
4245;DHT22;2136;48.502;9.194;2023-01-16T13:23:40;8.60;54.90
4245;DHT22;2136;48.502;9.194;2023-01-16T13:26:13;8.60;55.10
4245;DHT22;2136;48.502;9.194;2023-01-16T13:28:45;8.60;54.60
4245;DHT22;2136;48.502;9.194;2023-01-16T13:31:21;8.70;54.60
4245;DHT22;2136;48.502;9.194;2023-01-16T13:33:54;8.80;54.50
4245;DHT22;2136;48.502;9.194;2023-01-16T13:36:42;8.90;54.40
4245;DHT22;2136;48.502;9.194;2023-01-16T13:39:49;9.10;53.90
4245;DHT22;2136;48.502;9.194;2023-01-16T13:42:21;9.50;52.50
4245;DHT22;2136;48.502;9.194;2023-01-16T13:44:54;10.00;51.30
4245;DHT22;2136;48.502;9.194;2023-01-16T13:47:39;10.20;50.30
4245;DHT22;2136;48.502;9.194;2023-01-16T13:50:16;10.60;50.00
4245;DHT22;2136;48.502;9.194;2023-01-16T13:52:44;10.60;48.90
4245;DHT22;2136;48.502;9.194;2023-01-16T13:55:23;10.30;48.10
4245;DHT22;2136;48.502;9.194;2023-01-16T13:57:54;9.90;49.60
4245;DHT22;2136;48.502;9.194;2023-01-16T14:00:22;9.50;49.90
4245;DHT22;2136;48.502;9.194;2023-01-16T14:03:02;9.10;50.70
4245;DHT22;2136;48.502;9.194;2023-01-16T14:05:43;8.90;51.60
4245;DHT22;2136;48.502;9.194;2023-01-16T14:08:27;8.80;51.90
4245;DHT22;2136;48.502;9.194;2023-01-16T14:11:24;8.70;52.40
4245;DHT22;2136;48.502;9.194;2023-01-16T14:14:32;8.70;52.60
4245;DHT22;2136;48.502;9.194;2023-01-16T14:17:19;8.70;52.70
4245;DHT22;2136;48.502;9.194;2023-01-16T14:19:55;8.60;52.90
4245;DHT22;2136;48.502;9.194;2023-01-16T14:22:24;8.40;52.90
4245;DHT22;2136;48.502;9.194;2023-01-16T14:25:20;8.40;53.30
4245;DHT22;2136;48.502;9.194;2023-01-16T14:27:50;8.30;53.30
4245;DHT22;2136;48.502;9.194;2023-01-16T14:30:22;8.20;53.50
4245;DHT22;2136;48.502;9.194;2023-01-16T14:32:53;8.30;54.00
4245;DHT22;2136;48.502;9.194;2023-01-16T14:35:23;8.20;54.30
4245;DHT22;2136;48.502;9.194;2023-01-16T14:37:56;8.10;54.20
4245;DHT22;2136;48.502;9.194;2023-01-16T14:40:27;8.00;54.30
4245;DHT22;2136;48.502;9.194;2023-01-16T14:43:10;8.00;54.60
4245;DHT22;2136;48.502;9.194;2023-01-16T14:46:21;7.80;54.70
4245;DHT22;2136;48.502;9.194;2023-01-16T14:49:41;7.80;55.10
4245;DHT22;2136;48.502;9.194;2023-01-16T14:52:41;7.70;55.40
4245;DHT22;2136;48.502;9.194;2023-01-16T14:55:48;7.80;55.80
4245;DHT22;2136;48.502;9.194;2023-01-16T14:58:22;7.80;56.00
4245;DHT22;2136;48.502;9.194;2023-01-16T15:00:51;7.70;55.90
4245;DHT22;2136;48.502;9.194;2023-01-16T15:03:26;7.70;55.80
4245;DHT22;2136;48.502;9.194;2023-01-16T15:05:57;7.60;56.00
4245;DHT22;2136;48.502;9.194;2023-01-16T15:08:31;7.50;56.10
4245;DHT22;2136;48.502;9.194;2023-01-16T15:11:05;7.40;56.20
4245;DHT22;2136;48.502;9.194;2023-01-16T15:14:05;7.40;56.30
4245;DHT22;2136;48.502;9.194;2023-01-16T15:17:01;7.30;56.60
4245;DHT22;2136;48.502;9.194;2023-01-16T15:20:01;7.30;56.90
4245;DHT22;2136;48.502;9.194;2023-01-16T15:22:51;7.30;57.20
4245;DHT22;2136;48.502;9.194;2023-01-16T15:25:45;7.20;57.30
4245;DHT22;2136;48.502;9.194;2023-01-16T15:28:22;7.20;57.70
4245;DHT22;2136;48.502;9.194;2023-01-16T15:30:51;7.20;57.90
4245;DHT22;2136;48.502;9.194;2023-01-16T15:33:25;7.20;57.90
4245;DHT22;2136;48.502;9.194;2023-01-16T15:36:18;7.20;58.10
4245;DHT22;2136;48.502;9.194;2023-01-16T15:38:47;7.20;58.20
4245;DHT22;2136;48.502;9.194;2023-01-16T15:41:17;7.20;58.30
4245;DHT22;2136;48.502;9.194;2023-01-16T15:43:44;7.30;58.50
4245;DHT22;2136;48.502;9.194;2023-01-16T15:46:48;7.30;60.30
4245;DHT22;2136;48.502;9.194;2023-01-16T15:49:24;6.90;67.80
4245;DHT22;2136;48.502;9.194;2023-01-16T15:51:55;6.70;71.40
4245;DHT22;2136;48.502;9.194;2023-01-16T15:54:22;6.60;73.60
4245;DHT22;2136;48.502;9.194;2023-01-16T15:56:49;6.40;77.30
4245;DHT22;2136;48.502;9.194;2023-01-16T15:59:21;6.30;83.60
4245;DHT22;2136;48.502;9.194;2023-01-16T16:01:49;6.10;88.30
4245;DHT22;2136;48.502;9.194;2023-01-16T16:04:16;5.90;91.70
4245;DHT22;2136;48.502;9.194;2023-01-16T16:06:44;5.70;94.60
4245;DHT22;2136;48.502;9.194;2023-01-16T16:09:17;5.60;97.30
4245;DHT22;2136;48.502;9.194;2023-01-16T16:11:45;5.60;99.90
4245;DHT22;2136;48.502;9.194;2023-01-16T16:14:21;5.60;99.90
4245;DHT22;2136;48.502;9.194;2023-01-16T16:17:19;5.40;99.90
4245;DHT22;2136;48.502;9.194;2023-01-16T16:20:31;5.40;99.90
4245;DHT22;2136;48.502;9.194;2023-01-16T16:23:03;5.30;99.90
4245;DHT22;2136;48.502;9.194;2023-01-16T16:25:37;5.40;99.90
4245;DHT22;2136;48.502;9.194;2023-01-16T16:28:14;5.30;99.90
4245;DHT22;2136;48.502;9.194;2023-01-16T16:30:42;5.30;99.90
4245;DHT22;2136;48.502;9.194;2023-01-16T16:33:15;5.20;99.90
4245;DHT22;2136;48.502;9.194;2023-01-16T16:35:47;5.20;99.90
4245;DHT22;2136;48.502;9.194;2023-01-16T16:38:19;5.20;99.90
4245;DHT22;2136;48.502;9.194;2023-01-16T16:41:06;5.20;99.90
4245;DHT22;2136;48.502;9.194;2023-01-16T16:43:43;5.20;99.90
4245;DHT22;2136;48.502;9.194;2023-01-16T16:46:31;5.30;99.90
4245;DHT22;2136;48.502;9.194;2023-01-16T16:49:28;5.40;99.90
4245;DHT22;2136;48.502;9.194;2023-01-16T16:55:26;5.40;99.90
4245;DHT22;2136;48.502;9.194;2023-01-16T16:57:56;5.50;99.90
4245;DHT22;2136;48.502;9.194;2023-01-16T17:00:24;5.60;99.90
4245;DHT22;2136;48.502;9.194;2023-01-16T17:02:56;5.60;99.20
4245;DHT22;2136;48.502;9.194;2023-01-16T17:05:24;5.80;96.70
4245;DHT22;2136;48.502;9.194;2023-01-16T17:07:50;5.70;95.20
4245;DHT22;2136;48.502;9.194;2023-01-16T17:10:18;5.80;92.40
4245;DHT22;2136;48.502;9.194;2023-01-16T17:12:45;5.90;91.30
4245;DHT22;2136;48.502;9.194;2023-01-16T17:15:13;5.90;89.60